Time;durP1;ratioP1;P1;durP2;ratioP2;P2;SDS_P1;SDS_P2;PMS_P1;PMS_P2;Temp;Humidity;BMP_temperature;BMP_pressure;BME280_temperature;BME280_humidity;BME280_pressure;Samples;Min_cycle;Max_cycle;Signal;HPM_P1;HPM_P2
2023/01/01 00:02:08;;;;;;;18.70;11.68;;;12.20;1.00;;;;;;5060427;28;20036;-86
2023/01/01 00:04:55;;;;;;;18.48;11.90;;;12.20;1.00;;;;;;5071126;28;20076;-85
2023/01/01 00:07:43;;;;;;;19.60;12.82;;;12.20;1.00;;;;;;5073723;28;20151;-87
2023/01/01 00:10:32;;;;;;;22.40;11.68;;;12.20;1.00;;;;;;5086749;28;20106;-85
2023/01/01 00:13:19;;;;;;;14.45;10.63;;;12.20;1.00;;;;;;5074363;28;20098;-86
2023/01/01 00:16:13;;;;;;;17.75;10.48;;;12.30;1.00;;;;;;5086369;28;20118;-86
2023/01/01 00:19:00;;;;;;;16.50;10.73;;;12.20;1.00;;;;;;5086477;28;20087;-85
2023/01/01 00:21:50;;;;;;;17.33;10.52;;;12.30;1.00;;;;;;5073438;28;20044;-84
2023/01/01 00:24:39;;;;;;;13.60;9.65;;;12.20;1.00;;;;;;5082775;28;20075;-83
2023/01/01 00:27:27;;;;;;;19.00;9.60;;;12.20;1.00;;;;;;5074119;28;20074;-84
2023/01/01 00:30:14;;;;;;;14.98;10.18;;;12.30;1.00;;;;;;5077728;28;20051;-86
2023/01/01 00:33:02;;;;;;;20.85;11.95;;;12.30;1.00;;;;;;5079853;28;20063;-85
2023/01/01 00:35:49;;;;;;;17.35;11.23;;;12.30;1.00;;;;;;5084021;28;20045;-85
2023/01/01 00:38:36;;;;;;;17.70;11.75;;;12.20;1.00;;;;;;5070932;28;20057;-84
2023/01/01 00:41:26;;;;;;;17.73;11.82;;;12.10;1.00;;;;;;5067551;28;20055;-83
2023/01/01 00:44:14;;;;;;;21.95;13.40;;;12.00;1.00;;;;;;5076119;28;20048;-84
2023/01/01 00:47:01;;;;;;;17.98;12.70;;;11.90;1.00;;;;;;5084281;28;20053;-85
2023/01/01 00:49:49;;;;;;;20.88;13.07;;;11.90;1.00;;;;;;5083699;28;20049;-84
2023/01/01 00:52:36;;;;;;;17.13;12.25;;;11.80;1.00;;;;;;5077591;28;20428;-85
2023/01/01 00:55:26;;;;;;;22.27;12.43;;;11.70;1.00;;;;;;5064453;28;20048;-84
2023/01/01 00:58:14;;;;;;;19.02;12.63;;;11.60;1.00;;;;;;5076894;28;20044;-83
2023/01/01 01:01:01;;;;;;;19.23;12.70;;;11.40;20.70;;;;;;5073416;28;20150;-84
2023/01/01 01:03:49;;;;;;;20.63;13.00;;;11.40;49.50;;;;;;5063614;28;20083;-84
2023/01/01 01:06:39;;;;;;;18.33;12.43;;;11.40;74.50;;;;;;5068208;28;20045;-84
2023/01/01 01:09:27;;;;;;;23.10;13.23;;;11.40;93.00;;;;;;5029998;28;20094;-84
2023/01/01 01:12:16;;;;;;;21.23;12.90;;;11.40;99.90;;;;;;5055919;28;20372;-84
2023/01/01 01:15:07;;;;;;;20.63;13.30;;;11.30;99.90;;;;;;5067810;28;20040;-84
2023/01/01 01:17:55;;;;;;;19.63;13.00;;;11.30;99.90;;;;;;5062883;28;20045;-84
2023/01/01 01:20:52;;;;;;;24.00;13.20;;;11.10;99.90;;;;;;5061279;28;20138;-83
2023/01/01 01:23:42;;;;;;;20.63;13.00;;;11.00;99.90;;;;;;5063947;28;20037;-83
2023/01/01 01:26:32;;;;;;;16.25;11.18;;;10.90;99.90;;;;;;5067173;28;20040;-83
2023/01/01 01:29:19;;;;;;;18.38;11.82;;;11.00;99.90;;;;;;5079292;28;20052;-83
2023/01/01 01:32:19;;;;;;;20.48;10.40;;;11.10;99.90;;;;;;5067803;28;20048;-82
2023/01/01 01:35:09;;;;;;;15.70;10.00;;;11.20;99.90;;;;;;5077169;28;20093;-85
2023/01/01 01:38:01;;;;;;;15.93;9.40;;;11.40;99.90;;;;;;5071695;28;20052;-84
2023/01/01 01:40:52;;;;;;;13.35;9.45;;;11.70;99.90;;;;;;5052978;28;20051;-84
2023/01/01 01:43:39;;;;;;;13.23;8.68;;;12.00;51.80;;;;;;5076217;28;20087;-84
2023/01/01 01:46:43;;;;;;;18.05;9.98;;;12.00;1.00;;;;;;5062830;28;20045;-85
2023/01/01 01:49:31;;;;;;;13.82;9.65;;;12.00;1.00;;;;;;5066921;28;20462;-85
2023/01/01 01:52:18;;;;;;;13.23;9.25;;;12.10;1.00;;;;;;5057784;28;20060;-84
2023/01/01 01:55:08;;;;;;;18.05;9.52;;;12.00;1.00;;;;;;5055747;28;20045;-83
2023/01/01 01:57:55;;;;;;;14.95;9.00;;;12.00;1.00;;;;;;5075491;28;20425;-87
2023/01/01 02:00:43;;;;;;;13.70;9.20;;;12.00;1.00;;;;;;5065246;28;20045;-84
2023/01/01 02:03:42;;;;;;;13.93;9.18;;;12.10;1.00;;;;;;5061756;28;20366;-87
2023/01/01 02:06:34;;;;;;;12.65;8.98;;;12.20;1.00;;;;;;5074466;28;20361;-84
2023/01/01 02:09:24;;;;;;;13.80;8.63;;;12.20;1.00;;;;;;5075344;28;20135;-86
2023/01/01 02:12:11;;;;;;;11.65;8.68;;;12.40;1.00;;;;;;5056625;28;20056;-84
2023/01/01 02:14:58;;;;;;;13.77;8.77;;;12.50;1.00;;;;;;5061560;28;20389;-84
2023/01/01 02:18:01;;;;;;;15.27;9.18;;;12.60;1.00;;;;;;5049028;28;20154;-85
2023/01/01 02:21:04;;;;;;;16.40;9.15;;;12.50;1.00;;;;;;5054130;28;20045;-85
2023/01/01 02:24:03;;;;;;;;;;;12.60;1.00;;;;;;5065455;28;20087;-86
2023/01/01 02:26:56;;;;;;;14.50;9.30;;;12.60;1.00;;;;;;5062110;28;19920;-85
2023/01/01 02:30:06;;;;;;;17.63;9.60;;;12.60;1.00;;;;;;5065662;28;20059;-85
2023/01/01 02:33:13;;;;;;;18.17;9.32;;;12.60;1.00;;;;;;5060804;28;20041;-86
2023/01/01 02:36:03;;;;;;;17.25;9.55;;;12.50;1.00;;;;;;5058612;28;20087;-87
2023/01/01 02:38:54;;;;;;;18.25;9.02;;;12.50;1.00;;;;;;5061505;28;20052;-85
2023/01/01 02:41:49;;;;;;;17.75;9.80;;;12.40;1.00;;;;;;5074353;28;20127;-84
2023/01/01 02:44:44;;;;;;;15.27;9.60;;;12.30;1.00;;;;;;5067400;28;20133;-84
2023/01/01 02:47:33;;;;;;;14.98;9.93;;;12.20;1.00;;;;;;5067344;28;20080;-86
2023/01/01 02:50:29;;;;;;;16.60;10.05;;;12.10;1.00;;;;;;5061698;28;20056;-85
2023/01/01 02:53:28;;;;;;;15.10;9.27;;;12.00;1.00;;;;;;5057385;28;20186;-85
2023/01/01 02:57:02;;;;;;;13.50;9.55;;;12.00;1.00;;;;;;5076748;28;20056;-85
2023/01/01 03:00:23;;;;;;;13.80;8.38;;;12.00;1.00;;;;;;5047401;28;20075;-86
2023/01/01 03:03:46;;;;;;;11.20;7.68;;;12.00;1.00;;;;;;5069528;28;20086;-86
2023/01/01 03:06:57;;;;;;;12.00;8.10;;;12.00;1.00;;;;;;5063897;28;20052;-85
2023/01/01 03:10:04;;;;;;;13.35;7.55;;;12.00;1.00;;;;;;5074556;28;20118;-84
2023/01/01 03:13:14;;;;;;;13.85;8.00;;;11.90;1.00;;;;;;5058161;28;20533;-85
2023/01/01 03:16:17;;;;;;;13.50;7.45;;;12.00;1.00;;;;;;5074737;28;20086;-85
2023/01/01 03:19:15;;;;;;;12.15;7.65;;;12.00;1.00;;;;;;5068247;28;20044;-85
2023/01/01 03:22:12;;;;;;;15.48;7.93;;;11.80;1.00;;;;;;5043593;28;20106;-84
2023/01/01 03:25:13;;;;;;;10.68;7.38;;;11.80;1.00;;;;;;5059358;28;20040;-85
2023/01/01 03:28:10;;;;;;;17.80;8.30;;;11.90;1.00;;;;;;5068513;28;20048;-86
2023/01/01 03:30:58;;;;;;;12.82;7.72;;;11.80;1.00;;;;;;5074258;28;20491;-86
2023/01/01 03:33:58;;;;;;;11.60;7.38;;;11.80;1.00;;;;;;5059117;28;20067;-86
2023/01/01 03:36:51;;;;;;;9.90;7.18;;;11.70;1.00;;;;;;5058374;28;20108;-86
2023/01/01 03:39:46;;;;;;;12.10;7.60;;;11.80;1.00;;;;;;5069277;28;20052;-86
2023/01/01 03:42:45;;;;;;;11.57;7.78;;;11.70;1.00;;;;;;5060161;28;20190;-86
2023/01/01 03:45:37;;;;;;;12.07;7.15;;;11.80;1.00;;;;;;5072881;28;20040;-87
2023/01/01 03:48:25;;;;;;;10.43;6.70;;;11.70;1.00;;;;;;5074923;28;20087;-86
2023/01/01 03:51:22;;;;;;;10.38;6.60;;;11.80;1.00;;;;;;5068834;28;20166;-87
2023/01/01 03:54:43;;;;;;;11.07;6.18;;;12.10;1.00;;;;;;5049358;28;20044;-85
2023/01/01 03:57:43;;;;;;;8.63;5.95;;;12.20;1.00;;;;;;5062265;28;20041;-85
2023/01/01 04:00:41;;;;;;;8.50;5.53;;;12.10;1.00;;;;;;5074073;28;20037;-86
2023/01/01 04:03:31;;;;;;;10.95;6.50;;;12.20;1.00;;;;;;5074308;28;20106;-84
2023/01/01 04:06:21;;;;;;;9.35;5.53;;;12.00;1.00;;;;;;5073357;28;20051;-86
2023/01/01 04:09:16;;;;;;;13.43;6.20;;;11.90;1.00;;;;;;5073312;28;20055;-84
2023/01/01 04:12:06;;;;;;;9.63;5.50;;;11.90;1.00;;;;;;5073162;28;20477;-83
2023/01/01 04:14:56;;;;;;;8.98;5.93;;;12.00;1.00;;;;;;5056168;28;20140;-86
2023/01/01 04:17:43;;;;;;;11.95;5.95;;;12.00;1.00;;;;;;5071529;28;20512;-86
2023/01/01 04:20:31;;;;;;;9.98;5.97;;;11.90;1.00;;;;;;5073618;28;20040;-84
2023/01/01 04:23:18;;;;;;;9.23;5.47;;;11.80;1.00;;;;;;5050887;28;20482;-84
2023/01/01 04:26:14;;;;;;;9.00;5.65;;;11.70;1.00;;;;;;5056242;28;20048;-84
2023/01/01 04:29:01;;;;;;;11.52;6.03;;;11.70;1.00;;;;;;5056981;28;20056;-84
2023/01/01 04:31:48;;;;;;;11.18;5.80;;;11.80;1.00;;;;;;5064537;28;20376;-85
2023/01/01 04:34:36;;;;;;;11.52;6.32;;;11.80;1.00;;;;;;5071791;28;20101;-85
2023/01/01 04:37:26;;;;;;;9.85;6.03;;;11.80;1.00;;;;;;5056503;28;20381;-85
2023/01/01 04:40:17;;;;;;;9.20;5.82;;;11.60;1.00;;;;;;5069681;28;20040;-85
2023/01/01 04:43:04;;;;;;;11.75;6.05;;;11.60;1.00;;;;;;5058873;28;20462;-83
2023/01/01 04:46:01;;;;;;;9.70;5.80;;;11.50;1.00;;;;;;5054404;28;20159;-84
2023/01/01 04:48:49;;;;;;;11.73;6.07;;;11.60;1.00;;;;;;5065318;28;20068;-85
2023/01/01 04:51:37;;;;;;;14.00;6.20;;;11.50;1.00;;;;;;5071994;28;20508;-84
2023/01/01 04:54:24;;;;;;;13.82;6.13;;;11.40;1.00;;;;;;5070950;28;20059;-84
2023/01/01 04:57:12;;;;;;;9.57;5.78;;;11.50;1.00;;;;;;5061187;28;20047;-84
2023/01/01 05:00:01;;;;;;;10.73;5.38;;;11.40;1.00;;;;;;5073397;28;20116;-85
2023/01/01 05:02:48;;;;;;;9.85;5.43;;;11.50;1.00;;;;;;5069697;28;20048;-83
2023/01/01 05:05:38;;;;;;;11.65;5.57;;;11.60;1.00;;;;;;5049363;28;20492;-84
2023/01/01 05:08:26;;;;;;;10.68;5.38;;;11.60;1.00;;;;;;5051631;28;20071;-84
2023/01/01 05:11:25;;;;;;;6.90;4.75;;;11.60;1.00;;;;;;5072879;28;20099;-83
2023/01/01 05:14:12;;;;;;;8.15;5.13;;;11.60;1.00;;;;;;5061988;28;20103;-86
2023/01/01 05:16:59;;;;;;;10.30;5.47;;;11.70;1.00;;;;;;5064647;28;20060;-84
2023/01/01 05:19:46;;;;;;;10.95;5.03;;;11.60;1.00;;;;;;5063744;28;20067;-83
2023/01/01 05:22:35;;;;;;;7.93;4.47;;;11.60;1.00;;;;;;5073190;28;20045;-85
2023/01/01 05:25:23;;;;;;;8.70;5.22;;;11.50;1.00;;;;;;5062369;28;20468;-85
2023/01/01 05:28:12;;;;;;;8.00;5.75;;;11.40;1.00;;;;;;5058924;28;20044;-84
2023/01/01 05:31:05;;;;;;;6.47;5.13;;;11.40;1.00;;;;;;5075432;28;20048;-86
2023/01/01 05:33:52;;;;;;;9.05;5.78;;;11.40;1.00;;;;;;5039280;28;20079;-85
2023/01/01 05:36:40;;;;;;;8.35;5.57;;;11.40;1.00;;;;;;5073062;28;20056;-86
2023/01/01 05:39:30;;;;;;;8.90;5.22;;;11.30;1.00;;;;;;5057150;28;20044;-84
2023/01/01 05:42:17;;;;;;;10.52;5.57;;;11.20;1.00;;;;;;5067619;28;20128;-85
2023/01/01 05:45:05;;;;;;;8.07;4.82;;;11.10;1.00;;;;;;5064211;28;20041;-85
2023/01/01 05:47:53;;;;;;;9.30;5.28;;;11.10;1.00;;;;;;5067205;28;20048;-84
2023/01/01 05:50:40;;;;;;;7.88;5.28;;;11.00;1.00;;;;;;5067518;28;20505;-83
2023/01/01 05:53:29;;;;;;;9.30;5.47;;;10.90;6.30;;;;;;5071318;28;20053;-84
2023/01/01 05:56:17;;;;;;;8.40;5.15;;;10.90;17.00;;;;;;5072440;28;20045;-87
2023/01/01 05:59:04;;;;;;;7.45;4.82;;;10.90;27.30;;;;;;5040059;28;20128;-86
2023/01/01 06:01:52;;;;;;;6.70;4.63;;;10.90;33.20;;;;;;5072433;28;20044;-84
2023/01/01 06:04:40;;;;;;;9.50;5.47;;;10.90;40.20;;;;;;5073176;28;20041;-84
2023/01/01 06:07:27;;;;;;;7.30;5.05;;;10.90;43.10;;;;;;5071719;28;20477;-85
2023/01/01 06:10:15;;;;;;;7.72;5.70;;;10.80;53.50;;;;;;5067832;28;20100;-84
2023/01/01 06:13:05;;;;;;;12.30;4.70;;;10.80;62.80;;;;;;5074903;28;20049;-86
2023/01/01 06:16:03;;;;;;;7.13;4.88;;;10.70;74.60;;;;;;5060624;28;20373;-84
2023/01/01 06:18:51;;;;;;;7.57;5.10;;;10.70;95.50;;;;;;5062363;28;20576;-85
2023/01/01 06:21:38;;;;;;;6.47;4.20;;;10.80;93.30;;;;;;5065186;28;20167;-85
2023/01/01 06:24:26;;;;;;;9.30;4.75;;;10.80;87.50;;;;;;5069379;28;20461;-84
2023/01/01 06:27:15;;;;;;;7.22;4.43;;;10.80;66.90;;;;;;5076509;28;20169;-83
2023/01/01 06:30:04;;;;;;;6.40;4.13;;;10.70;62.60;;;;;;5076440;28;20473;-85
2023/01/01 06:32:52;;;;;;;7.93;4.50;;;10.60;72.20;;;;;;5055984;28;20059;-84
2023/01/01 06:35:40;;;;;;;6.55;4.97;;;10.70;85.00;;;;;;5062811;28;20064;-84
2023/01/01 06:38:29;;;;;;;9.15;5.10;;;10.70;90.50;;;;;;5068097;28;20053;-84
2023/01/01 06:41:21;;;;;;;9.02;4.72;;;10.70;87.40;;;;;;5048597;28;20053;-84
2023/01/01 06:44:08;;;;;;;7.93;4.57;;;10.80;65.50;;;;;;5076050;28;20496;-84
2023/01/01 06:46:58;;;;;;;6.35;4.45;;;10.90;34.90;;;;;;5072944;28;20112;-84
2023/01/01 06:49:47;;;;;;;6.82;4.25;;;10.90;20.90;;;;;;5044017;28;20066;-84
2023/01/01 06:52:35;;;;;;;6.88;4.38;;;11.00;7.80;;;;;;5065243;28;20056;-84
2023/01/01 06:55:22;;;;;;;8.15;4.50;;;11.00;1.00;;;;;;5070779;28;20049;-84
2023/01/01 06:58:12;;;;;;;8.02;4.13;;;11.00;1.00;;;;;;5071582;28;20048;-83
2023/01/01 07:01:12;;;;;;;7.90;4.32;;;11.00;1.00;;;;;;5059881;28;20048;-85
2023/01/01 07:04:09;;;;;;;5.90;4.57;;;11.00;1.00;;;;;;5065970;28;20050;-83
2023/01/01 07:06:57;;;;;;;5.35;4.15;;;11.00;1.00;;;;;;5064911;28;20099;-84
2023/01/01 07:09:46;;;;;;;7.65;4.30;;;11.00;1.00;;;;;;5071699;28;20056;-86
2023/01/01 07:12:36;;;;;;;5.57;3.83;;;11.00;1.00;;;;;;5061077;28;20060;-86
2023/01/01 07:15:25;;;;;;;6.50;4.10;;;11.00;1.00;;;;;;5068082;28;20136;-85
2023/01/01 07:18:12;;;;;;;7.07;4.07;;;11.00;1.00;;;;;;5057885;28;20052;-83
2023/01/01 07:21:19;;;;;;;10.65;5.13;;;10.90;1.00;;;;;;5071308;28;20067;-84
2023/01/01 07:24:15;;;;;;;9.15;4.50;;;11.10;1.00;;;;;;5070512;28;20149;-83
2023/01/01 07:27:02;;;;;;;7.25;4.40;;;11.10;1.00;;;;;;5073967;28;20461;-85
2023/01/01 07:29:52;;;;;;;6.43;4.10;;;11.10;1.00;;;;;;5065733;28;20054;-84
2023/01/01 07:32:41;;;;;;;6.60;4.15;;;11.10;1.00;;;;;;5075614;28;20102;-84
2023/01/01 07:35:28;;;;;;;6.57;4.32;;;11.20;1.00;;;;;;5044434;28;20461;-85
2023/01/01 07:38:18;;;;;;;6.55;3.83;;;11.20;1.00;;;;;;5072438;28;20048;-83
2023/01/01 07:41:06;;;;;;;11.35;3.78;;;11.30;1.00;;;;;;5054986;28;20055;-89
2023/01/01 07:43:53;;;;;;;8.10;4.10;;;11.30;1.00;;;;;;5073046;28;20052;-84
2023/01/01 07:46:40;;;;;;;6.47;4.35;;;11.40;1.00;;;;;;5070792;28;20101;-84
2023/01/01 07:49:28;;;;;;;7.40;3.75;;;11.40;1.00;;;;;;5071716;28;20173;-83
2023/01/01 07:52:15;;;;;;;8.15;3.90;;;11.50;1.00;;;;;;5075635;28;20049;-84
2023/01/01 07:55:02;;;;;;;6.85;4.07;;;11.50;1.00;;;;;;5058150;28;20045;-85
2023/01/01 07:57:49;;;;;;;6.72;3.63;;;11.60;1.00;;;;;;5052127;28;20107;-83
2023/01/01 08:00:37;;;;;;;6.25;3.50;;;11.60;1.00;;;;;;5060382;28;20055;-84
2023/01/01 08:03:25;;;;;;;7.10;4.20;;;11.60;1.00;;;;;;5073594;28;20051;-84
2023/01/01 08:06:14;;;;;;;8.63;4.07;;;11.60;1.00;;;;;;5059576;28;20626;-86
2023/01/01 08:09:03;;;;;;;6.32;4.10;;;11.60;1.00;;;;;;5056118;28;20491;-84
2023/01/01 08:11:52;;;;;;;7.75;4.35;;;11.50;1.00;;;;;;5060019;28;20066;-85
2023/01/01 08:14:41;;;;;;;7.60;4.07;;;11.40;1.00;;;;;;5054107;28;20130;-84
2023/01/01 08:17:28;;;;;;;6.97;3.92;;;11.40;1.00;;;;;;5073284;28;20109;-84
2023/01/01 08:20:17;;;;;;;6.97;4.25;;;11.40;1.00;;;;;;5063426;28;20048;-84
2023/01/01 08:23:04;;;;;;;6.03;3.97;;;11.40;1.00;;;;;;5074287;28;20068;-85
2023/01/01 08:25:58;;;;;;;8.00;4.03;;;11.40;1.00;;;;;;5066806;28;20048;-84
2023/01/01 08:28:45;;;;;;;6.82;4.63;;;11.40;1.00;;;;;;5057776;28;20052;-84
2023/01/01 08:31:36;;;;;;;8.73;3.92;;;11.40;1.00;;;;;;5053916;28;20098;-84
2023/01/01 08:34:24;;;;;;;8.60;4.50;;;11.30;1.00;;;;;;5067527;28;20047;-84
2023/01/01 08:37:18;;;;;;;8.10;4.25;;;11.30;1.00;;;;;;5063400;28;20135;-84
2023/01/01 08:40:06;;;;;;;8.52;4.18;;;11.40;1.00;;;;;;5058037;28;20044;-84
2023/01/01 08:42:54;;;;;;;6.25;4.07;;;11.50;1.00;;;;;;5054262;28;20036;-84
2023/01/01 08:45:46;;;;;;;9.25;4.68;;;11.50;1.00;;;;;;5072029;28;20374;-84
2023/01/01 08:48:33;;;;;;;7.50;4.20;;;11.60;1.00;;;;;;5052895;28;20044;-86
2023/01/01 08:51:20;;;;;;;6.97;4.35;;;11.70;1.00;;;;;;5071313;28;20041;-84
2023/01/01 08:54:09;;;;;;;9.15;4.20;;;11.90;1.00;;;;;;5073341;28;20131;-84
2023/01/01 08:56:58;;;;;;;5.38;3.95;;;12.00;1.00;;;;;;5073856;28;20040;-84
2023/01/01 08:59:47;;;;;;;6.22;3.78;;;12.20;1.00;;;;;;5058218;28;20044;-84
2023/01/01 09:02:34;;;;;;;6.35;3.78;;;12.30;1.00;;;;;;5051066;28;20040;-84
2023/01/01 09:05:22;;;;;;;6.68;3.70;;;12.40;99.90;;;;;;5058014;28;20056;-84
2023/01/01 09:08:09;;;;;;;7.53;3.75;;;12.50;99.90;;;;;;5048238;28;20048;-83
2023/01/01 09:11:01;;;;;;;8.13;4.18;;;12.70;99.90;;;;;;5055598;28;20063;-84
2023/01/01 09:13:48;;;;;;;6.63;3.85;;;12.80;99.90;;;;;;5071396;28;20156;-84
2023/01/01 09:16:36;;;;;;;7.32;4.13;;;13.00;99.90;;;;;;5062272;28;20329;-83
2023/01/01 09:19:30;;;;;;;7.47;4.03;;;13.10;99.90;;;;;;5073868;28;20041;-83
2023/01/01 09:22:17;;;;;;;8.93;3.67;;;13.20;99.90;;;;;;5072237;28;20040;-84
2023/01/01 09:25:05;;;;;;;5.60;4.07;;;13.40;99.90;;;;;;5056391;28;20098;-83
2023/01/01 09:28:05;;;;;;;6.85;4.30;;;13.50;99.90;;;;;;5055457;28;20094;-84
2023/01/01 09:30:52;;;;;;;11.77;4.47;;;13.50;99.90;;;;;;5056192;28;20049;-85
2023/01/01 09:33:42;;;;;;;8.18;3.90;;;13.60;99.90;;;;;;5045251;28;20071;-86
2023/01/01 09:36:31;;;;;;;7.30;3.85;;;13.50;99.90;;;;;;5072892;28;20048;-84
2023/01/01 09:39:23;;;;;;;6.82;3.92;;;13.30;99.90;;;;;;5071739;28;20063;-84
2023/01/01 09:42:39;;;;;;;7.15;4.43;;;13.40;99.90;;;;;;5069506;28;20041;-84
2023/01/01 09:45:30;;;;;;;8.50;4.57;;;13.50;99.90;;;;;;5074326;28;20483;-83
2023/01/01 09:48:17;;;;;;;6.20;3.97;;;13.60;99.90;;;;;;5069729;28;20122;-85
2023/01/01 09:51:12;;;;;;;6.75;4.53;;;13.80;99.90;;;;;;5059601;28;20048;-85
2023/01/01 09:54:17;;;;;;;6.63;3.88;;;14.30;99.90;;;;;;5050291;28;20056;-83
2023/01/01 09:57:10;;;;;;;6.55;3.85;;;14.30;99.90;;;;;;5061526;28;20036;-83
2023/01/01 10:00:15;;;;;;;8.02;4.28;;;14.40;99.90;;;;;;5073573;28;20056;-84
2023/01/01 10:03:23;;;;;;;7.40;4.10;;;14.60;99.90;;;;;;5075978;28;20063;-84
2023/01/01 10:06:29;;;;;;;8.88;3.85;;;14.70;99.90;;;;;;5047996;28;20468;-84
2023/01/01 10:09:32;;;;;;;8.35;4.65;;;15.00;99.90;;;;;;5060919;28;20041;-84
2023/01/01 10:12:37;;;;;;;6.00;3.97;;;15.00;99.90;;;;;;5078285;28;20112;-85
2023/01/01 10:15:38;;;;;;;5.57;3.45;;;15.00;99.90;;;;;;5065217;28;20051;-84
2023/01/01 10:18:36;;;;;;;8.40;3.88;;;15.20;99.90;;;;;;5085167;28;20097;-86
2023/01/01 10:21:35;;;;;;;9.60;4.15;;;15.40;99.90;;;;;;5069962;28;20044;-83
2023/01/01 10:24:56;;;;;;;6.50;3.97;;;15.30;99.90;;;;;;5074492;28;20458;-87
2023/01/01 10:28:07;;;;;;;9.57;4.07;;;15.50;99.90;;;;;;5068454;28;20045;-86
2023/01/01 10:31:25;;;;;;;14.05;4.03;;;15.40;99.90;;;;;;5086241;28;20076;-85
2023/01/01 10:34:18;;;;;;;6.40;4.15;;;15.10;99.90;;;;;;5063189;28;20055;-85
2023/01/01 10:37:10;;;;;;;6.60;3.92;;;14.90;99.90;;;;;;5075299;28;20056;-84
2023/01/01 10:39:57;;;;;;;5.85;3.65;;;15.10;99.90;;;;;;5079928;28;20102;-83
2023/01/01 10:42:53;;;;;;;7.30;3.88;;;15.20;99.90;;;;;;5071164;28;20137;-85
2023/01/01 10:45:51;;;;;;;6.53;3.58;;;15.20;99.90;;;;;;5075592;28;20041;-85
2023/01/01 10:48:54;;;;;;;9.00;3.58;;;15.50;99.90;;;;;;5057126;28;20036;-83
2023/01/01 10:51:52;;;;;;;9.90;3.42;;;16.00;99.90;;;;;;5076841;28;20047;-83
2023/01/01 10:54:41;;;;;;;4.53;3.00;;;16.40;99.90;;;;;;5067980;28;20053;-86
2023/01/01 10:57:30;;;;;;;8.98;4.03;;;16.60;99.90;;;;;;5072918;28;20045;-86
2023/01/01 11:00:26;;;;;;;7.28;4.10;;;16.60;99.90;;;;;;5061009;28;20048;-86
2023/01/01 11:03:20;;;;;;;7.70;3.30;;;16.60;99.90;;;;;;5075706;28;20040;-83
2023/01/01 11:06:34;;;;;;;5.40;3.70;;;16.90;99.90;;;;;;5060338;28;20040;-84
2023/01/01 11:09:26;;;;;;;6.95;4.05;;;16.70;99.90;;;;;;5076149;28;20044;-84
2023/01/01 11:12:24;;;;;;;6.85;3.85;;;16.60;99.90;;;;;;5068454;28;20051;-83
2023/01/01 11:15:31;;;;;;;6.60;3.60;;;16.80;99.90;;;;;;5068687;28;20040;-84
2023/01/01 11:18:34;;;;;;;8.18;3.88;;;16.60;99.90;;;;;;5064102;28;20137;-82
2023/01/01 11:21:23;;;;;;;5.43;3.30;;;16.80;99.90;;;;;;5075884;28;20041;-83
2023/01/01 11:24:18;;;;;;;7.43;3.65;;;16.90;99.90;;;;;;5071424;28;20062;-83
2023/01/01 11:27:22;;;;;;;7.95;3.35;;;17.00;99.90;;;;;;5068198;28;20048;-82
2023/01/01 11:30:21;;;;;;;6.40;3.30;;;17.40;99.90;;;;;;5052257;28;20044;-82
2023/01/01 11:33:15;;;;;;;8.25;3.72;;;17.50;99.90;;;;;;5071181;28;20137;-89
2023/01/01 11:36:04;;;;;;;5.40;3.15;;;17.70;99.90;;;;;;5066340;28;20539;-84
2023/01/01 11:39:06;;;;;;;9.57;3.63;;;17.80;99.90;;;;;;5067830;28;20052;-83
2023/01/01 11:41:57;;;;;;;5.35;2.97;;;17.90;99.90;;;;;;5070628;28;20458;-84
2023/01/01 11:44:57;;;;;;;7.88;3.75;;;18.10;99.90;;;;;;5059110;28;20037;-84
2023/01/01 11:47:58;;;;;;;4.80;2.58;;;18.30;99.90;;;;;;5056423;28;20048;-85
2023/01/01 11:50:59;;;;;;;4.97;2.50;;;18.80;99.90;;;;;;5062990;28;20052;-85
2023/01/01 11:53:47;;;;;;;5.50;2.63;;;18.50;99.90;;;;;;5059521;28;20044;-83
2023/01/01 11:56:35;;;;;;;5.50;3.00;;;18.60;99.90;;;;;;5060329;28;20053;-83
2023/01/01 11:59:28;;;;;;;5.95;2.65;;;19.10;99.90;;;;;;5071681;28;20048;-84
2023/01/01 12:02:23;;;;;;;7.55;3.28;;;19.10;99.90;;;;;;5074714;28;20037;-84
2023/01/01 12:05:26;;;;;;;4.93;3.03;;;19.40;99.90;;;;;;5070263;28;20040;-86
2023/01/01 12:08:20;;;;;;;7.63;2.40;;;19.20;99.90;;;;;;5058680;28;20052;-84
2023/01/01 12:11:36;;;;;;;5.65;2.80;;;19.20;99.90;;;;;;5055950;28;20124;-83
2023/01/01 12:14:45;;;;;;;8.10;2.80;;;19.30;99.90;;;;;;5074623;28;20129;-83
2023/01/01 12:17:40;;;;;;;8.80;2.90;;;18.70;99.90;;;;;;5074715;28;20059;-83
2023/01/01 12:21:02;;;;;;;6.50;2.80;;;18.80;99.90;;;;;;5067087;28;20048;-83
2023/01/01 12:23:50;;;;;;;5.97;2.60;;;19.30;99.90;;;;;;5071281;28;20059;-85
2023/01/01 12:26:54;;;;;;;7.80;3.47;;;19.90;99.90;;;;;;5062655;28;20041;-85
2023/01/01 12:30:01;;;;;;;4.55;2.88;;;20.60;99.90;;;;;;5065560;28;20040;-83
2023/01/01 12:33:21;;;;;;;7.95;2.40;;;20.50;99.90;;;;;;5073168;28;20131;-83
2023/01/01 12:36:27;;;;;;;5.55;2.45;;;20.10;99.90;;;;;;5062146;28;20468;-84
2023/01/01 12:39:58;;;;;;;10.18;2.95;;;19.50;99.90;;;;;;5060672;28;20059;-84
2023/01/01 12:42:57;;;;;;;4.82;2.53;;;19.60;99.90;;;;;;5068930;28;20482;-85
2023/01/01 12:46:13;;;;;;;6.05;2.65;;;20.00;99.90;;;;;;5073319;28;20061;-84
2023/01/01 12:49:16;;;;;;;8.82;2.20;;;20.20;99.90;;;;;;5048129;28;20069;-84
2023/01/01 12:52:19;;;;;;;4.18;2.42;;;20.30;99.90;;;;;;5071456;28;20044;-83
2023/01/01 12:55:32;;;;;;;7.28;2.75;;;19.90;99.90;;;;;;5054967;28;20115;-84
2023/01/01 12:58:37;;;;;;;6.93;2.38;;;19.80;99.90;;;;;;5072114;28;20075;-84
2023/01/01 13:01:30;;;;;;;7.18;2.30;;;19.70;99.90;;;;;;5069844;28;20075;-84
2023/01/01 13:04:21;;;;;;;6.97;2.33;;;19.50;99.90;;;;;;5054292;28;20041;-85
2023/01/01 13:07:13;;;;;;;6.40;2.28;;;19.90;99.90;;;;;;5067816;28;20060;-85
2023/01/01 13:10:25;;;;;;;6.97;2.75;;;19.80;99.90;;;;;;5047934;28;20053;-84
2023/01/01 13:13:14;;;;;;;8.02;2.97;;;19.90;99.90;;;;;;5065678;28;20044;-83
2023/01/01 13:16:02;;;;;;;7.55;2.35;;;20.00;99.90;;;;;;5071268;28;20079;-83
2023/01/01 13:18:50;;;;;;;13.65;2.35;;;20.00;99.90;;;;;;5072618;28;20044;-84
2023/01/01 13:21:43;;;;;;;5.95;2.53;;;20.40;99.90;;;;;;5071398;28;20044;-84
2023/01/01 13:24:30;;;;;;;6.88;2.55;;;20.00;99.90;;;;;;5062067;28;20048;-83
2023/01/01 13:27:56;;;;;;;5.97;2.53;;;19.80;99.90;;;;;;5069344;28;20055;-81
2023/01/01 13:30:43;;;;;;;8.52;2.50;;;19.50;99.90;;;;;;5071855;28;20461;-83
2023/01/01 13:33:35;;;;;;;6.75;2.50;;;19.50;99.90;;;;;;5053670;28;20793;-82
2023/01/01 13:36:24;;;;;;;7.22;2.35;;;19.70;99.90;;;;;;5060314;28;20123;-82
2023/01/01 13:39:31;;;;;;;9.55;2.47;;;19.90;99.90;;;;;;5078105;28;20041;-82
2023/01/01 13:42:39;;;;;;;6.60;2.50;;;19.50;99.90;;;;;;5070480;28;20040;-83
2023/01/01 13:45:54;;;;;;;7.65;2.50;;;19.30;99.90;;;;;;5057943;28;20434;-84
2023/01/01 13:49:22;;;;;;;7.20;3.00;;;19.30;98.60;;;;;;5058577;28;20049;-85
2023/01/01 13:52:18;;;;;;;4.95;1.90;;;19.40;98.40;;;;;;5071991;28;20056;-83
2023/01/01 13:55:14;;;;;;;6.10;2.42;;;19.20;97.20;;;;;;5071560;28;20051;-82
2023/01/01 13:58:04;;;;;;;7.10;2.30;;;19.30;97.80;;;;;;5070502;28;20049;-83
2023/01/01 14:01:16;;;;;;;10.70;2.75;;;19.40;97.00;;;;;;5074784;28;20106;-84
2023/01/01 14:04:06;;;;;;;;;;;19.20;97.10;;;;;;5054394;28;20397;-82
2023/01/01 14:07:01;;;;;;;9.85;2.30;;;19.10;95.00;;;;;;5067647;28;20062;-81
2023/01/01 14:10:34;;;;;;;7.20;2.50;;;19.00;94.80;;;;;;5061768;28;20058;-82
2023/01/01 14:13:26;;;;;;;7.60;2.67;;;19.00;93.10;;;;;;5066480;28;20109;-83
2023/01/01 14:16:17;;;;;;;6.63;2.35;;;19.20;94.50;;;;;;5072808;28;20052;-82
2023/01/01 14:19:04;;;;;;;9.95;2.78;;;19.30;93.00;;;;;;5071443;28;20044;-82
2023/01/01 14:21:59;;;;;;;7.35;2.50;;;19.30;92.20;;;;;;5072474;28;20041;-82
2023/01/01 14:24:48;;;;;;;4.05;2.28;;;19.20;91.30;;;;;;5072582;28;20351;-82
2023/01/01 14:27:38;;;;;;;5.97;2.35;;;19.20;90.80;;;;;;5041541;28;20053;-82
2023/01/01 14:30:31;;;;;;;8.25;2.92;;;19.30;89.80;;;;;;5071904;28;20365;-83
2023/01/01 14:33:27;;;;;;;9.93;2.38;;;19.50;90.90;;;;;;5073787;28;20083;-82
2023/01/01 14:36:32;;;;;;;5.35;2.58;;;19.70;89.40;;;;;;5074741;28;20084;-82
2023/01/01 14:39:27;;;;;;;8.20;2.17;;;19.80;86.30;;;;;;5058233;28;20130;-82
2023/01/01 14:42:17;;;;;;;5.95;2.30;;;19.50;84.20;;;;;;5072372;28;20048;-82
2023/01/01 14:45:23;;;;;;;6.03;2.38;;;19.20;82.10;;;;;;5072941;28;20056;-83
2023/01/01 14:48:20;;;;;;;11.02;2.80;;;19.00;83.20;;;;;;5073764;28;20040;-82
2023/01/01 14:51:27;;;;;;;10.00;3.80;;;18.60;83.30;;;;;;5053871;28;20045;-83
2023/01/01 14:54:19;;;;;;;9.52;3.42;;;18.30;90.60;;;;;;5059124;28;20056;-82
2023/01/01 14:57:16;;;;;;;7.60;2.92;;;18.20;95.20;;;;;;5070521;28;20041;-82
2023/01/01 15:00:22;;;;;;;10.00;2.30;;;18.00;96.10;;;;;;5070021;28;20044;-83
2023/01/01 15:03:24;;;;;;;7.68;2.50;;;17.70;93.70;;;;;;5071638;28;20469;-83
2023/01/01 15:06:18;;;;;;;7.47;2.30;;;17.30;99.90;;;;;;5071581;28;20036;-82
2023/01/01 15:09:09;;;;;;;7.60;2.17;;;16.80;95.40;;;;;;5072701;28;20044;-81